sensor_id;sensor_type;location;lat;lon;timestamp;P1;durP1;ratioP1;P2;durP2;ratioP2
60086;SDS011;45960;53.630;55.972;2023-08-20T00:00:09;7.63;;;4.85;;
60086;SDS011;45960;53.630;55.972;2023-08-20T00:01:14;7.82;;;5.40;;
60086;SDS011;45960;53.630;55.972;2023-08-20T00:02:20;9.15;;;4.70;;
60086;SDS011;45960;53.630;55.972;2023-08-20T00:03:24;11.05;;;4.80;;
60086;SDS011;45960;53.630;55.972;2023-08-20T00:04:25;5.22;;;4.03;;
60086;SDS011;45960;53.630;55.972;2023-08-20T00:05:27;8.60;;;4.75;;
60086;SDS011;45960;53.630;55.972;2023-08-20T00:06:29;9.93;;;4.90;;
60086;SDS011;45960;53.630;55.972;2023-08-20T00:07:31;5.20;;;4.43;;
60086;SDS011;45960;53.630;55.972;2023-08-20T00:08:32;7.57;;;4.75;;
60086;SDS011;45960;53.630;55.972;2023-08-20T00:09:33;11.00;;;4.90;;
60086;SDS011;45960;53.630;55.972;2023-08-20T00:10:34;7.25;;;4.40;;
60086;SDS011;45960;53.630;55.972;2023-08-20T00:11:36;6.63;;;4.25;;
60086;SDS011;45960;53.630;55.972;2023-08-20T00:12:37;10.35;;;4.60;;
60086;SDS011;45960;53.630;55.972;2023-08-20T00:13:38;8.98;;;5.50;;
60086;SDS011;45960;53.630;55.972;2023-08-20T00:15:55;7.55;;;4.53;;
60086;SDS011;45960;53.630;55.972;2023-08-20T00:16:56;7.88;;;4.20;;
60086;SDS011;45960;53.630;55.972;2023-08-20T00:17:57;7.22;;;4.43;;
60086;SDS011;45960;53.630;55.972;2023-08-20T00:18:58;12.13;;;4.15;;
60086;SDS011;45960;53.630;55.972;2023-08-20T00:20:00;8.18;;;4.95;;
60086;SDS011;45960;53.630;55.972;2023-08-20T00:21:01;8.55;;;4.28;;
60086;SDS011;45960;53.630;55.972;2023-08-20T00:22:03;6.88;;;4.32;;
60086;SDS011;45960;53.630;55.972;2023-08-20T00:23:04;9.48;;;4.28;;
60086;SDS011;45960;53.630;55.972;2023-08-20T00:24:06;9.25;;;4.25;;
60086;SDS011;45960;53.630;55.972;2023-08-20T00:25:08;7.35;;;4.15;;
60086;SDS011;45960;53.630;55.972;2023-08-20T00:26:10;16.73;;;4.60;;
60086;SDS011;45960;53.630;55.972;2023-08-20T00:27:12;7.45;;;4.38;;
60086;SDS011;45960;53.630;55.972;2023-08-20T00:28:13;8.73;;;4.75;;
60086;SDS011;45960;53.630;55.972;2023-08-20T00:29:15;6.55;;;4.57;;
60086;SDS011;45960;53.630;55.972;2023-08-20T00:30:16;8.93;;;4.75;;
60086;SDS011;45960;53.630;55.972;2023-08-20T00:31:17;5.68;;;3.90;;
60086;SDS011;45960;53.630;55.972;2023-08-20T00:32:19;5.65;;;4.10;;
60086;SDS011;45960;53.630;55.972;2023-08-20T00:33:20;8.27;;;4.32;;
60086;SDS011;45960;53.630;55.972;2023-08-20T00:34:20;6.35;;;4.10;;
60086;SDS011;45960;53.630;55.972;2023-08-20T00:35:23;7.30;;;4.32;;
60086;SDS011;45960;53.630;55.972;2023-08-20T00:36:24;10.98;;;4.90;;
60086;SDS011;45960;53.630;55.972;2023-08-20T00:37:25;8.98;;;4.35;;
60086;SDS011;45960;53.630;55.972;2023-08-20T00:38:26;11.52;;;4.75;;
60086;SDS011;45960;53.630;55.972;2023-08-20T00:39:28;7.03;;;4.43;;
60086;SDS011;45960;53.630;55.972;2023-08-20T00:40:30;10.68;;;4.82;;
60086;SDS011;45960;53.630;55.972;2023-08-20T00:41:32;9.25;;;4.47;;
60086;SDS011;45960;53.630;55.972;2023-08-20T00:42:33;10.20;;;4.63;;
60086;SDS011;45960;53.630;55.972;2023-08-20T00:43:34;9.55;;;4.32;;
60086;SDS011;45960;53.630;55.972;2023-08-20T00:44:35;8.88;;;4.88;;
60086;SDS011;45960;53.630;55.972;2023-08-20T00:45:36;6.93;;;4.10;;
60086;SDS011;45960;53.630;55.972;2023-08-20T00:46:37;7.82;;;4.15;;
60086;SDS011;45960;53.630;55.972;2023-08-20T00:47:39;7.72;;;4.30;;
60086;SDS011;45960;53.630;55.972;2023-08-20T00:48:41;4.80;;;4.28;;
60086;SDS011;45960;53.630;55.972;2023-08-20T00:49:42;4.78;;;3.90;;
60086;SDS011;45960;53.630;55.972;2023-08-20T00:50:43;9.07;;;4.10;;
60086;SDS011;45960;53.630;55.972;2023-08-20T00:51:45;10.63;;;4.13;;
60086;SDS011;45960;53.630;55.972;2023-08-20T00:52:47;10.32;;;4.40;;
60086;SDS011;45960;53.630;55.972;2023-08-20T00:53:48;7.45;;;3.72;;
60086;SDS011;45960;53.630;55.972;2023-08-20T00:54:49;9.40;;;4.40;;
60086;SDS011;45960;53.630;55.972;2023-08-20T00:55:51;11.50;;;4.47;;
60086;SDS011;45960;53.630;55.972;2023-08-20T00:56:52;6.40;;;4.53;;
60086;SDS011;45960;53.630;55.972;2023-08-20T00:57:53;10.60;;;4.55;;
60086;SDS011;45960;53.630;55.972;2023-08-20T00:58:54;8.55;;;4.47;;
60086;SDS011;45960;53.630;55.972;2023-08-20T00:59:55;8.50;;;4.80;;
60086;SDS011;45960;53.630;55.972;2023-08-20T01:00:57;7.90;;;3.88;;
60086;SDS011;45960;53.630;55.972;2023-08-20T01:01:58;8.23;;;4.30;;
60086;SDS011;45960;53.630;55.972;2023-08-20T01:02:59;9.80;;;4.50;;
60086;SDS011;45960;53.630;55.972;2023-08-20T01:04:00;6.68;;;4.00;;
60086;SDS011;45960;53.630;55.972;2023-08-20T01:05:03;5.80;;;4.30;;
60086;SDS011;45960;53.630;55.972;2023-08-20T01:06:55;12.23;;;4.60;;
60086;SDS011;45960;53.630;55.972;2023-08-20T01:07:54;9.40;;;4.32;;
60086;SDS011;45960;53.630;55.972;2023-08-20T01:12:07;6.65;;;4.20;;
60086;SDS011;45960;53.630;55.972;2023-08-20T01:13:10;8.73;;;4.13;;
60086;SDS011;45960;53.630;55.972;2023-08-20T01:14:15;6.45;;;4.25;;
60086;SDS011;45960;53.630;55.972;2023-08-20T01:15:17;13.23;;;4.47;;
60086;SDS011;45960;53.630;55.972;2023-08-20T01:16:19;7.60;;;4.55;;
60086;SDS011;45960;53.630;55.972;2023-08-20T01:17:19;7.13;;;4.28;;
60086;SDS011;45960;53.630;55.972;2023-08-20T01:18:21;9.00;;;4.45;;
60086;SDS011;45960;53.630;55.972;2023-08-20T01:19:22;9.27;;;4.28;;
60086;SDS011;45960;53.630;55.972;2023-08-20T01:20:25;8.75;;;4.72;;
60086;SDS011;45960;53.630;55.972;2023-08-20T01:21:37;5.97;;;3.85;;
60086;SDS011;45960;53.630;55.972;2023-08-20T01:26:20;6.85;;;4.00;;
60086;SDS011;45960;53.630;55.972;2023-08-20T01:27:38;7.10;;;4.30;;
60086;SDS011;45960;53.630;55.972;2023-08-20T01:28:58;9.35;;;4.20;;
60086;SDS011;45960;53.630;55.972;2023-08-20T01:29:59;8.70;;;4.38;;
60086;SDS011;45960;53.630;55.972;2023-08-20T01:31:01;8.55;;;4.43;;
60086;SDS011;45960;53.630;55.972;2023-08-20T01:32:03;7.07;;;4.38;;
60086;SDS011;45960;53.630;55.972;2023-08-20T01:33:06;12.70;;;4.28;;
60086;SDS011;45960;53.630;55.972;2023-08-20T01:34:07;8.85;;;4.22;;
60086;SDS011;45960;53.630;55.972;2023-08-20T01:35:11;6.18;;;4.10;;
60086;SDS011;45960;53.630;55.972;2023-08-20T01:36:14;6.85;;;4.53;;
60086;SDS011;45960;53.630;55.972;2023-08-20T01:37:15;14.60;;;4.72;;
60086;SDS011;45960;53.630;55.972;2023-08-20T01:38:17;9.23;;;4.32;;
60086;SDS011;45960;53.630;55.972;2023-08-20T01:39:18;8.43;;;4.57;;
60086;SDS011;45960;53.630;55.972;2023-08-20T01:40:19;15.55;;;4.13;;
60086;SDS011;45960;53.630;55.972;2023-08-20T01:41:20;11.10;;;4.07;;
60086;SDS011;45960;53.630;55.972;2023-08-20T01:42:21;7.55;;;3.97;;
60086;SDS011;45960;53.630;55.972;2023-08-20T01:43:22;12.27;;;4.45;;
60086;SDS011;45960;53.630;55.972;2023-08-20T01:44:23;18.63;;;5.05;;
60086;SDS011;45960;53.630;55.972;2023-08-20T01:45:24;7.15;;;4.15;;
60086;SDS011;45960;53.630;55.972;2023-08-20T01:46:26;9.35;;;4.63;;
60086;SDS011;45960;53.630;55.972;2023-08-20T01:47:27;7.82;;;4.30;;
60086;SDS011;45960;53.630;55.972;2023-08-20T01:48:28;8.38;;;4.30;;
60086;SDS011;45960;53.630;55.972;2023-08-20T01:49:29;6.35;;;3.88;;
60086;SDS011;45960;53.630;55.972;2023-08-20T01:50:30;6.97;;;4.03;;
60086;SDS011;45960;53.630;55.972;2023-08-20T01:51:31;9.13;;;3.90;;
60086;SDS011;45960;53.630;55.972;2023-08-20T01:52:33;4.90;;;3.85;;
60086;SDS011;45960;53.630;55.972;2023-08-20T01:53:34;9.18;;;4.40;;
60086;SDS011;45960;53.630;55.972;2023-08-20T01:54:35;17.27;;;4.63;;
60086;SDS011;45960;53.630;55.972;2023-08-20T01:55:36;9.32;;;4.07;;
60086;SDS011;45960;53.630;55.972;2023-08-20T01:56:37;10.05;;;4.35;;
60086;SDS011;45960;53.630;55.972;2023-08-20T01:57:38;9.50;;;4.13;;
60086;SDS011;45960;53.630;55.972;2023-08-20T01:58:39;9.10;;;4.07;;
60086;SDS011;45960;53.630;55.972;2023-08-20T01:59:41;13.32;;;4.15;;
60086;SDS011;45960;53.630;55.972;2023-08-20T02:00:42;5.38;;;3.85;;
60086;SDS011;45960;53.630;55.972;2023-08-20T02:01:43;9.02;;;4.45;;
60086;SDS011;45960;53.630;55.972;2023-08-20T02:02:44;10.48;;;4.18;;
60086;SDS011;45960;53.630;55.972;2023-08-20T02:03:45;8.38;;;4.18;;
60086;SDS011;45960;53.630;55.972;2023-08-20T02:04:46;9.40;;;4.45;;
60086;SDS011;45960;53.630;55.972;2023-08-20T02:05:47;13.50;;;3.97;;
60086;SDS011;45960;53.630;55.972;2023-08-20T02:06:48;7.78;;;4.50;;
60086;SDS011;45960;53.630;55.972;2023-08-20T02:07:49;10.52;;;4.85;;
60086;SDS011;45960;53.630;55.972;2023-08-20T02:08:50;8.20;;;4.07;;
60086;SDS011;45960;53.630;55.972;2023-08-20T02:09:51;9.40;;;4.13;;
60086;SDS011;45960;53.630;55.972;2023-08-20T02:10:59;5.22;;;3.67;;
60086;SDS011;45960;53.630;55.972;2023-08-20T02:12:04;9.20;;;4.43;;
60086;SDS011;45960;53.630;55.972;2023-08-20T02:13:06;8.27;;;3.95;;
60086;SDS011;45960;53.630;55.972;2023-08-20T02:14:07;9.85;;;4.95;;
60086;SDS011;45960;53.630;55.972;2023-08-20T02:15:08;7.85;;;4.15;;
60086;SDS011;45960;53.630;55.972;2023-08-20T02:16:11;10.07;;;3.85;;
60086;SDS011;45960;53.630;55.972;2023-08-20T02:17:12;9.73;;;3.80;;
60086;SDS011;45960;53.630;55.972;2023-08-20T02:18:14;11.50;;;3.80;;
60086;SDS011;45960;53.630;55.972;2023-08-20T02:19:17;8.05;;;3.70;;
60086;SDS011;45960;53.630;55.972;2023-08-20T02:20:18;7.75;;;4.50;;
60086;SDS011;45960;53.630;55.972;2023-08-20T02:21:19;7.07;;;3.88;;
60086;SDS011;45960;53.630;55.972;2023-08-20T02:22:20;5.95;;;3.88;;
60086;SDS011;45960;53.630;55.972;2023-08-20T02:23:22;5.00;;;3.47;;
60086;SDS011;45960;53.630;55.972;2023-08-20T02:24:26;7.35;;;4.72;;
60086;SDS011;45960;53.630;55.972;2023-08-20T02:25:26;11.80;;;4.30;;
60086;SDS011;45960;53.630;55.972;2023-08-20T02:26:29;8.80;;;3.80;;
60086;SDS011;45960;53.630;55.972;2023-08-20T02:27:30;7.15;;;4.28;;
60086;SDS011;45960;53.630;55.972;2023-08-20T02:28:31;10.02;;;3.85;;
60086;SDS011;45960;53.630;55.972;2023-08-20T02:29:32;7.63;;;4.25;;
60086;SDS011;45960;53.630;55.972;2023-08-20T02:30:37;9.27;;;4.28;;
60086;SDS011;45960;53.630;55.972;2023-08-20T02:31:42;6.82;;;4.20;;
60086;SDS011;45960;53.630;55.972;2023-08-20T02:32:43;10.43;;;3.80;;
60086;SDS011;45960;53.630;55.972;2023-08-20T02:33:44;6.45;;;3.88;;
60086;SDS011;45960;53.630;55.972;2023-08-20T02:34:51;8.73;;;4.40;;
60086;SDS011;45960;53.630;55.972;2023-08-20T02:35:52;5.47;;;3.85;;
60086;SDS011;45960;53.630;55.972;2023-08-20T02:36:53;6.65;;;3.90;;
60086;SDS011;45960;53.630;55.972;2023-08-20T02:37:54;9.27;;;4.78;;
60086;SDS011;45960;53.630;55.972;2023-08-20T02:38:55;5.50;;;3.95;;
60086;SDS011;45960;53.630;55.972;2023-08-20T02:39:56;8.05;;;4.22;;
60086;SDS011;45960;53.630;55.972;2023-08-20T02:40:57;7.03;;;4.25;;
60086;SDS011;45960;53.630;55.972;2023-08-20T02:41:58;5.50;;;3.92;;
60086;SDS011;45960;53.630;55.972;2023-08-20T02:43:01;6.82;;;3.88;;
60086;SDS011;45960;53.630;55.972;2023-08-20T02:44:02;6.63;;;4.30;;
60086;SDS011;45960;53.630;55.972;2023-08-20T02:45:04;6.65;;;3.67;;
60086;SDS011;45960;53.630;55.972;2023-08-20T02:46:05;7.18;;;3.63;;
60086;SDS011;45960;53.630;55.972;2023-08-20T02:47:08;8.48;;;4.10;;
60086;SDS011;45960;53.630;55.972;2023-08-20T02:48:10;7.10;;;4.50;;
60086;SDS011;45960;53.630;55.972;2023-08-20T02:49:12;7.80;;;4.47;;
60086;SDS011;45960;53.630;55.972;2023-08-20T02:50:15;6.00;;;3.67;;
60086;SDS011;45960;53.630;55.972;2023-08-20T02:51:16;6.78;;;4.15;;
60086;SDS011;45960;53.630;55.972;2023-08-20T02:52:17;5.55;;;4.07;;
60086;SDS011;45960;53.630;55.972;2023-08-20T02:53:19;9.02;;;3.97;;
60086;SDS011;45960;53.630;55.972;2023-08-20T02:54:20;5.00;;;4.28;;
60086;SDS011;45960;53.630;55.972;2023-08-20T02:55:21;5.03;;;3.58;;
60086;SDS011;45960;53.630;55.972;2023-08-20T02:56:22;7.72;;;4.20;;
60086;SDS011;45960;53.630;55.972;2023-08-20T02:57:23;7.30;;;3.85;;
60086;SDS011;45960;53.630;55.972;2023-08-20T02:58:24;11.23;;;4.55;;
60086;SDS011;45960;53.630;55.972;2023-08-20T02:59:25;7.00;;;4.63;;
60086;SDS011;45960;53.630;55.972;2023-08-20T03:00:26;10.40;;;4.18;;
60086;SDS011;45960;53.630;55.972;2023-08-20T03:01:28;9.55;;;4.13;;
60086;SDS011;45960;53.630;55.972;2023-08-20T03:02:30;6.82;;;3.80;;
60086;SDS011;45960;53.630;55.972;2023-08-20T03:03:31;12.02;;;4.65;;
60086;SDS011;45960;53.630;55.972;2023-08-20T03:04:32;13.25;;;4.18;;
60086;SDS011;45960;53.630;55.972;2023-08-20T03:05:34;9.30;;;4.43;;
60086;SDS011;45960;53.630;55.972;2023-08-20T03:06:35;8.85;;;4.45;;
60086;SDS011;45960;53.630;55.972;2023-08-20T03:07:36;9.98;;;3.95;;
60086;SDS011;45960;53.630;55.972;2023-08-20T03:08:37;8.15;;;4.90;;
60086;SDS011;45960;53.630;55.972;2023-08-20T03:09:38;12.57;;;4.22;;
60086;SDS011;45960;53.630;55.972;2023-08-20T03:10:39;6.97;;;4.35;;
60086;SDS011;45960;53.630;55.972;2023-08-20T03:11:40;6.32;;;4.43;;
60086;SDS011;45960;53.630;55.972;2023-08-20T03:12:41;11.02;;;4.43;;
60086;SDS011;45960;53.630;55.972;2023-08-20T03:13:44;12.70;;;4.30;;
60086;SDS011;45960;53.630;55.972;2023-08-20T03:14:45;12.63;;;4.90;;
60086;SDS011;45960;53.630;55.972;2023-08-20T03:15:46;12.07;;;4.90;;
60086;SDS011;45960;53.630;55.972;2023-08-20T03:16:47;10.38;;;4.60;;
60086;SDS011;45960;53.630;55.972;2023-08-20T03:17:48;13.40;;;4.75;;
60086;SDS011;45960;53.630;55.972;2023-08-20T03:18:49;10.05;;;4.32;;
60086;SDS011;45960;53.630;55.972;2023-08-20T03:20:08;7.57;;;4.25;;
60086;SDS011;45960;53.630;55.972;2023-08-20T03:21:10;7.72;;;5.18;;
60086;SDS011;45960;53.630;55.972;2023-08-20T03:22:11;9.60;;;4.57;;
60086;SDS011;45960;53.630;55.972;2023-08-20T03:23:11;11.65;;;5.22;;
60086;SDS011;45960;53.630;55.972;2023-08-20T03:24:12;10.15;;;5.10;;
60086;SDS011;45960;53.630;55.972;2023-08-20T03:25:13;13.27;;;5.00;;
60086;SDS011;45960;53.630;55.972;2023-08-20T03:26:15;14.90;;;6.13;;
60086;SDS011;45960;53.630;55.972;2023-08-20T03:27:16;15.63;;;5.00;;
60086;SDS011;45960;53.630;55.972;2023-08-20T03:28:18;11.77;;;4.68;;
60086;SDS011;45960;53.630;55.972;2023-08-20T03:29:20;13.23;;;4.63;;
60086;SDS011;45960;53.630;55.972;2023-08-20T03:30:21;10.10;;;4.95;;
60086;SDS011;45960;53.630;55.972;2023-08-20T03:31:22;7.63;;;4.72;;
60086;SDS011;45960;53.630;55.972;2023-08-20T03:32:24;8.70;;;4.85;;
60086;SDS011;45960;53.630;55.972;2023-08-20T03:33:25;11.30;;;5.55;;
60086;SDS011;45960;53.630;55.972;2023-08-20T03:34:27;6.03;;;4.82;;
60086;SDS011;45960;53.630;55.972;2023-08-20T03:35:28;8.55;;;4.53;;
60086;SDS011;45960;53.630;55.972;2023-08-20T03:36:30;6.80;;;4.88;;
60086;SDS011;45960;53.630;55.972;2023-08-20T03:37:32;12.70;;;5.05;;
60086;SDS011;45960;53.630;55.972;2023-08-20T03:38:34;8.52;;;4.40;;
60086;SDS011;45960;53.630;55.972;2023-08-20T03:39:35;18.85;;;5.13;;
60086;SDS011;45960;53.630;55.972;2023-08-20T03:40:36;17.65;;;6.43;;
60086;SDS011;45960;53.630;55.972;2023-08-20T03:41:37;27.67;;;7.90;;
60086;SDS011;45960;53.630;55.972;2023-08-20T03:42:38;14.70;;;6.88;;
60086;SDS011;45960;53.630;55.972;2023-08-20T03:43:39;18.30;;;7.32;;
60086;SDS011;45960;53.630;55.972;2023-08-20T03:44:41;13.63;;;6.22;;
60086;SDS011;45960;53.630;55.972;2023-08-20T03:45:42;11.98;;;5.70;;
60086;SDS011;45960;53.630;55.972;2023-08-20T03:46:43;12.32;;;6.70;;
60086;SDS011;45960;53.630;55.972;2023-08-20T03:47:44;14.20;;;5.97;;
60086;SDS011;45960;53.630;55.972;2023-08-20T03:48:47;12.95;;;6.32;;
60086;SDS011;45960;53.630;55.972;2023-08-20T03:49:48;15.55;;;6.25;;
60086;SDS011;45960;53.630;55.972;2023-08-20T03:50:49;15.02;;;6.35;;
60086;SDS011;45960;53.630;55.972;2023-08-20T03:51:50;11.90;;;6.32;;
60086;SDS011;45960;53.630;55.972;2023-08-20T03:52:52;15.80;;;6.60;;
60086;SDS011;45960;53.630;55.972;2023-08-20T03:53:53;17.55;;;6.95;;
60086;SDS011;45960;53.630;55.972;2023-08-20T03:54:54;16.45;;;6.35;;
60086;SDS011;45960;53.630;55.972;2023-08-20T03:55:55;8.10;;;4.78;;
60086;SDS011;45960;53.630;55.972;2023-08-20T03:56:56;17.60;;;5.47;;
60086;SDS011;45960;53.630;55.972;2023-08-20T03:57:57;17.90;;;8.75;;
60086;SDS011;45960;53.630;55.972;2023-08-20T03:58:58;31.95;;;12.18;;
60086;SDS011;45960;53.630;55.972;2023-08-20T03:59:59;27.42;;;11.45;;
60086;SDS011;45960;53.630;55.972;2023-08-20T04:01:00;24.13;;;9.20;;
60086;SDS011;45960;53.630;55.972;2023-08-20T04:02:01;25.67;;;9.32;;
60086;SDS011;45960;53.630;55.972;2023-08-20T04:03:03;32.90;;;11.88;;
60086;SDS011;45960;53.630;55.972;2023-08-20T04:04:04;38.67;;;11.90;;
60086;SDS011;45960;53.630;55.972;2023-08-20T04:05:05;49.42;;;12.43;;
60086;SDS011;45960;53.630;55.972;2023-08-20T04:06:06;27.17;;;8.10;;
60086;SDS011;45960;53.630;55.972;2023-08-20T04:07:07;22.52;;;6.25;;
60086;SDS011;45960;53.630;55.972;2023-08-20T04:08:10;32.65;;;9.85;;
60086;SDS011;45960;53.630;55.972;2023-08-20T04:09:11;31.73;;;9.45;;
60086;SDS011;45960;53.630;55.972;2023-08-20T04:10:13;29.65;;;9.48;;
60086;SDS011;45960;53.630;55.972;2023-08-20T04:11:14;33.30;;;9.77;;
60086;SDS011;45960;53.630;55.972;2023-08-20T04:12:15;24.15;;;8.45;;
60086;SDS011;45960;53.630;55.972;2023-08-20T04:13:16;20.10;;;9.00;;
60086;SDS011;45960;53.630;55.972;2023-08-20T04:14:17;34.33;;;12.05;;
60086;SDS011;45960;53.630;55.972;2023-08-20T04:15:19;28.80;;;10.93;;
60086;SDS011;45960;53.630;55.972;2023-08-20T04:16:20;23.45;;;9.75;;
60086;SDS011;45960;53.630;55.972;2023-08-20T04:17:21;19.20;;;10.52;;
60086;SDS011;45960;53.630;55.972;2023-08-20T04:18:23;21.15;;;11.45;;
60086;SDS011;45960;53.630;55.972;2023-08-20T04:19:24;20.30;;;12.60;;
60086;SDS011;45960;53.630;55.972;2023-08-20T04:20:25;20.67;;;11.77;;
60086;SDS011;45960;53.630;55.972;2023-08-20T04:21:27;20.00;;;13.57;;
60086;SDS011;45960;53.630;55.972;2023-08-20T04:22:28;28.27;;;13.68;;
60086;SDS011;45960;53.630;55.972;2023-08-20T04:23:31;27.83;;;15.38;;
60086;SDS011;45960;53.630;55.972;2023-08-20T04:24:34;29.20;;;16.02;;
60086;SDS011;45960;53.630;55.972;2023-08-20T04:25:35;20.17;;;13.73;;
60086;SDS011;45960;53.630;55.972;2023-08-20T04:26:36;24.67;;;14.07;;
60086;SDS011;45960;53.630;55.972;2023-08-20T04:27:37;24.70;;;13.10;;
60086;SDS011;45960;53.630;55.972;2023-08-20T04:28:38;24.60;;;13.55;;
60086;SDS011;45960;53.630;55.972;2023-08-20T04:29:39;31.02;;;12.75;;
60086;SDS011;45960;53.630;55.972;2023-08-20T04:30:40;46.17;;;20.45;;
60086;SDS011;45960;53.630;55.972;2023-08-20T04:31:41;37.47;;;17.73;;
60086;SDS011;45960;53.630;55.972;2023-08-20T04:32:43;36.28;;;15.73;;
60086;SDS011;45960;53.630;55.972;2023-08-20T04:33:45;55.65;;;18.63;;
60086;SDS011;45960;53.630;55.972;2023-08-20T04:34:49;34.67;;;16.45;;
60086;SDS011;45960;53.630;55.972;2023-08-20T04:35:54;38.25;;;15.45;;
60086;SDS011;45960;53.630;55.972;2023-08-20T04:36:55;20.27;;;10.30;;
60086;SDS011;45960;53.630;55.972;2023-08-20T04:37:57;14.60;;;10.60;;
60086;SDS011;45960;53.630;55.972;2023-08-20T04:38:58;41.50;;;15.18;;
60086;SDS011;45960;53.630;55.972;2023-08-20T04:39:59;24.83;;;14.15;;
60086;SDS011;45960;53.630;55.972;2023-08-20T04:41:02;24.77;;;13.43;;
60086;SDS011;45960;53.630;55.972;2023-08-20T04:42:03;21.30;;;12.63;;
60086;SDS011;45960;53.630;55.972;2023-08-20T04:43:05;20.90;;;13.07;;
60086;SDS011;45960;53.630;55.972;2023-08-20T04:44:06;22.60;;;13.48;;
60086;SDS011;45960;53.630;55.972;2023-08-20T04:45:08;26.10;;;16.30;;
60086;SDS011;45960;53.630;55.972;2023-08-20T04:46:11;40.00;;;19.52;;
60086;SDS011;45960;53.630;55.972;2023-08-20T04:47:12;36.53;;;17.27;;
60086;SDS011;45960;53.630;55.972;2023-08-20T04:48:13;33.60;;;15.70;;
60086;SDS011;45960;53.630;55.972;2023-08-20T04:49:15;25.40;;;14.23;;
60086;SDS011;45960;53.630;55.972;2023-08-20T04:50:16;29.55;;;14.07;;
60086;SDS011;45960;53.630;55.972;2023-08-20T04:51:19;28.05;;;11.25;;
60086;SDS011;45960;53.630;55.972;2023-08-20T04:52:21;11.65;;;6.97;;
60086;SDS011;45960;53.630;55.972;2023-08-20T04:53:23;14.30;;;7.00;;
60086;SDS011;45960;53.630;55.972;2023-08-20T04:54:24;12.95;;;8.43;;
60086;SDS011;45960;53.630;55.972;2023-08-20T04:55:25;21.02;;;10.40;;
60086;SDS011;45960;53.630;55.972;2023-08-20T04:56:27;21.88;;;12.43;;
60086;SDS011;45960;53.630;55.972;2023-08-20T04:57:29;18.52;;;11.60;;
60086;SDS011;45960;53.630;55.972;2023-08-20T04:58:31;10.82;;;7.10;;
60086;SDS011;45960;53.630;55.972;2023-08-20T04:59:33;9.95;;;6.45;;
60086;SDS011;45960;53.630;55.972;2023-08-20T05:00:49;7.80;;;5.63;;
60086;SDS011;45960;53.630;55.972;2023-08-20T05:01:50;10.32;;;5.78;;
60086;SDS011;45960;53.630;55.972;2023-08-20T05:02:54;8.30;;;5.15;;
60086;SDS011;45960;53.630;55.972;2023-08-20T05:03:56;17.02;;;8.68;;
60086;SDS011;45960;53.630;55.972;2023-08-20T05:04:59;23.27;;;9.85;;
60086;SDS011;45960;53.630;55.972;2023-08-20T05:05:59;17.85;;;11.88;;
60086;SDS011;45960;53.630;55.972;2023-08-20T05:07:00;22.85;;;11.32;;
60086;SDS011;45960;53.630;55.972;2023-08-20T05:08:02;15.45;;;8.68;;
60086;SDS011;45960;53.630;55.972;2023-08-20T05:09:03;17.52;;;7.90;;
60086;SDS011;45960;53.630;55.972;2023-08-20T05:10:04;17.98;;;7.53;;
60086;SDS011;45960;53.630;55.972;2023-08-20T05:11:05;27.13;;;10.15;;
60086;SDS011;45960;53.630;55.972;2023-08-20T05:12:07;22.85;;;12.07;;
60086;SDS011;45960;53.630;55.972;2023-08-20T05:13:10;22.45;;;12.05;;
60086;SDS011;45960;53.630;55.972;2023-08-20T05:14:11;17.60;;;10.43;;
60086;SDS011;45960;53.630;55.972;2023-08-20T05:15:13;18.42;;;9.13;;
60086;SDS011;45960;53.630;55.972;2023-08-20T05:16:13;19.13;;;10.45;;
60086;SDS011;45960;53.630;55.972;2023-08-20T05:17:14;22.48;;;12.00;;
60086;SDS011;45960;53.630;55.972;2023-08-20T05:18:15;24.05;;;10.57;;
60086;SDS011;45960;53.630;55.972;2023-08-20T05:19:16;18.67;;;8.57;;
60086;SDS011;45960;53.630;55.972;2023-08-20T05:20:17;15.65;;;9.38;;
60086;SDS011;45960;53.630;55.972;2023-08-20T05:21:19;19.52;;;9.38;;
60086;SDS011;45960;53.630;55.972;2023-08-20T05:22:19;17.23;;;9.32;;
60086;SDS011;45960;53.630;55.972;2023-08-20T05:23:20;20.95;;;9.57;;
60086;SDS011;45960;53.630;55.972;2023-08-20T05:24:22;18.40;;;8.32;;
60086;SDS011;45960;53.630;55.972;2023-08-20T05:25:23;15.43;;;7.32;;
60086;SDS011;45960;53.630;55.972;2023-08-20T05:26:25;11.00;;;7.15;;
60086;SDS011;45960;53.630;55.972;2023-08-20T05:27:26;20.77;;;6.60;;
60086;SDS011;45960;53.630;55.972;2023-08-20T05:28:27;23.35;;;8.15;;
60086;SDS011;45960;53.630;55.972;2023-08-20T05:29:28;24.92;;;6.78;;
60086;SDS011;45960;53.630;55.972;2023-08-20T05:30:29;19.45;;;7.13;;
60086;SDS011;45960;53.630;55.972;2023-08-20T05:31:30;19.77;;;6.40;;
60086;SDS011;45960;53.630;55.972;2023-08-20T05:32:31;9.60;;;5.97;;
60086;SDS011;45960;53.630;55.972;2023-08-20T05:33:32;28.58;;;8.23;;
60086;SDS011;45960;53.630;55.972;2023-08-20T05:34:35;18.02;;;7.47;;
60086;SDS011;45960;53.630;55.972;2023-08-20T05:35:38;26.80;;;8.25;;
60086;SDS011;45960;53.630;55.972;2023-08-20T05:36:39;16.63;;;7.10;;
60086;SDS011;45960;53.630;55.972;2023-08-20T05:37:40;18.73;;;6.93;;
60086;SDS011;45960;53.630;55.972;2023-08-20T05:38:41;17.55;;;7.10;;
60086;SDS011;45960;53.630;55.972;2023-08-20T05:39:44;9.18;;;5.05;;
60086;SDS011;45960;53.630;55.972;2023-08-20T05:40:46;16.60;;;6.00;;
60086;SDS011;45960;53.630;55.972;2023-08-20T05:41:47;14.40;;;6.20;;
60086;SDS011;45960;53.630;55.972;2023-08-20T05:42:48;17.25;;;7.03;;
60086;SDS011;45960;53.630;55.972;2023-08-20T05:43:51;45.40;;;6.43;;
60086;SDS011;45960;53.630;55.972;2023-08-20T05:44:54;15.32;;;7.15;;
60086;SDS011;45960;53.630;55.972;2023-08-20T05:46:00;17.45;;;7.38;;
60086;SDS011;45960;53.630;55.972;2023-08-20T05:47:01;22.67;;;9.38;;
60086;SDS011;45960;53.630;55.972;2023-08-20T05:48:02;28.25;;;9.95;;
60086;SDS011;45960;53.630;55.972;2023-08-20T05:49:04;18.70;;;9.80;;
60086;SDS011;45960;53.630;55.972;2023-08-20T05:50:08;22.55;;;9.30;;
60086;SDS011;45960;53.630;55.972;2023-08-20T05:51:09;20.90;;;8.15;;
60086;SDS011;45960;53.630;55.972;2023-08-20T05:52:12;25.08;;;7.10;;
60086;SDS011;45960;53.630;55.972;2023-08-20T05:53:15;22.08;;;8.93;;
60086;SDS011;45960;53.630;55.972;2023-08-20T05:54:17;26.92;;;9.00;;
60086;SDS011;45960;53.630;55.972;2023-08-20T05:55:18;23.58;;;7.97;;
60086;SDS011;45960;53.630;55.972;2023-08-20T05:56:20;26.83;;;7.22;;
60086;SDS011;45960;53.630;55.972;2023-08-20T05:57:21;31.17;;;7.38;;
60086;SDS011;45960;53.630;55.972;2023-08-20T05:58:22;28.42;;;6.97;;
60086;SDS011;45960;53.630;55.972;2023-08-20T05:59:23;37.47;;;8.75;;
60086;SDS011;45960;53.630;55.972;2023-08-20T06:00:24;25.75;;;7.53;;
60086;SDS011;45960;53.630;55.972;2023-08-20T06:01:25;26.10;;;10.15;;
60086;SDS011;45960;53.630;55.972;2023-08-20T06:02:26;21.35;;;10.25;;
60086;SDS011;45960;53.630;55.972;2023-08-20T06:03:27;23.73;;;8.07;;
60086;SDS011;45960;53.630;55.972;2023-08-20T06:04:28;22.80;;;8.15;;
60086;SDS011;45960;53.630;55.972;2023-08-20T06:05:29;19.13;;;7.97;;
60086;SDS011;45960;53.630;55.972;2023-08-20T06:06:30;19.50;;;7.88;;
60086;SDS011;45960;53.630;55.972;2023-08-20T06:07:31;50.42;;;8.00;;
60086;SDS011;45960;53.630;55.972;2023-08-20T06:08:32;19.65;;;5.78;;
60086;SDS011;45960;53.630;55.972;2023-08-20T06:09:33;27.38;;;7.45;;
60086;SDS011;45960;53.630;55.972;2023-08-20T06:10:34;15.50;;;5.38;;
60086;SDS011;45960;53.630;55.972;2023-08-20T06:11:35;22.25;;;5.85;;